Time;durP1;ratioP1;P1;durP2;ratioP2;P2;SDS_P1;SDS_P2;PMS_P1;PMS_P2;Temp;Humidity;BMP_temperature;BMP_pressure;BME280_temperature;BME280_humidity;BME280_pressure;Samples;Min_cycle;Max_cycle;Signal;HPM_P1;HPM_P2
2021/08/05 00:02:08;;;;;;;11.60;10.40;;;16.60;99.90;;;;;;5041773;28;20201;-37
2021/08/05 00:04:34;;;;;;;13.50;12.20;;;16.60;99.90;;;;;;5033997;28;20416;-37
2021/08/05 00:07:00;;;;;;;12.77;11.60;;;16.70;99.90;;;;;;5048154;28;20519;-37
2021/08/05 00:09:25;;;;;;;12.93;11.80;;;16.70;99.90;;;;;;5030671;28;20763;-37
2021/08/05 00:11:51;;;;;;;13.20;12.00;;;16.60;99.90;;;;;;5028814;28;20186;-37
2021/08/05 00:14:17;;;;;;;13.20;12.03;;;16.60;99.90;;;;;;5033495;28;20205;-37
2021/08/05 00:16:42;;;;;;;14.30;12.90;;;16.60;99.90;;;;;;5036807;28;20637;-37
2021/08/05 00:19:08;;;;;;;13.90;12.63;;;16.70;99.90;;;;;;5029119;28;20194;-37
2021/08/05 00:21:34;;;;;;;13.77;12.57;;;16.70;99.90;;;;;;5034141;28;20276;-37
2021/08/05 00:24:00;;;;;;;14.33;12.20;;;16.70;99.90;;;;;;5029996;28;20293;-37
2021/08/05 00:26:26;;;;;;;12.60;11.50;;;16.80;99.90;;;;;;5028509;28;20513;-37
2021/08/05 00:28:52;;;;;;;11.53;10.53;;;16.90;99.90;;;;;;5035916;28;20528;-37
2021/08/05 00:31:18;;;;;;;13.13;11.80;;;16.90;99.90;;;;;;5042206;28;20190;-37
2021/08/05 00:33:44;;;;;;;12.23;11.13;;;16.90;99.90;;;;;;5042193;28;20706;-38
2021/08/05 00:36:10;;;;;;;11.67;10.57;;;16.90;99.90;;;;;;5030039;28;20421;-37
2021/08/05 00:38:36;;;;;;;13.60;12.30;;;16.90;99.90;;;;;;5030524;28;20187;-37
2021/08/05 00:41:02;;;;;;;13.77;12.57;;;16.80;99.90;;;;;;5027807;28;20475;-37
2021/08/05 00:43:28;;;;;;;14.30;12.80;;;16.90;99.90;;;;;;5028130;28;21216;-37
2021/08/05 00:45:53;;;;;;;14.93;13.50;;;16.80;99.90;;;;;;5042422;28;20429;-37
2021/08/05 00:48:19;;;;;;;15.33;13.80;;;16.80;99.90;;;;;;5037244;28;20720;-37
2021/08/05 00:50:47;;;;;;;17.00;15.30;;;16.80;99.90;;;;;;5028050;28;20273;-37
2021/08/05 00:53:14;;;;;;;16.87;15.17;;;16.80;99.90;;;;;;5040606;28;20194;-37
2021/08/05 00:55:40;;;;;;;16.90;15.30;;;16.70;99.90;;;;;;5027999;28;20440;-38
2021/08/05 00:58:06;;;;;;;17.83;15.93;;;16.70;99.90;;;;;;5028332;28;20440;-37
2021/08/05 01:00:32;;;;;;;17.63;16.07;;;16.60;99.90;;;;;;5035226;28;20417;-37
2021/08/05 01:03:06;;;;;;;17.07;15.47;;;16.50;99.90;;;;;;5036459;28;20573;-38
2021/08/05 01:05:37;;;;;;;15.93;14.37;;;16.60;99.90;;;;;;5041185;28;21068;-37
2021/08/05 01:08:10;;;;;;;17.10;15.50;;;16.60;99.90;;;;;;5040214;28;21061;-37
2021/08/05 01:10:49;;;;;;;16.60;15.00;;;16.70;99.90;;;;;;5027788;28;20417;-37
2021/08/05 01:13:37;;;;;;;17.00;15.40;;;16.70;99.90;;;;;;5027500;28;20425;-37
2021/08/05 01:16:08;;;;;;;18.30;16.50;;;16.50;99.90;;;;;;5038854;28;20494;-38
2021/08/05 01:18:37;;;;;;;17.60;15.83;;;16.50;99.90;;;;;;5045390;28;20420;-37
2021/08/05 01:21:25;;;;;;;19.07;17.17;;;16.50;99.90;;;;;;5027578;28;20867;-37
2021/08/05 01:23:59;;;;;;;19.20;16.27;;;16.50;99.90;;;;;;5044323;28;20800;-37
2021/08/05 01:26:48;;;;;;;18.13;16.30;;;16.50;99.90;;;;;;5047687;28;20446;-37
2021/08/05 01:29:15;;;;;;;18.33;16.53;;;16.60;99.90;;;;;;5040306;28;20446;-37
2021/08/05 01:31:43;;;;;;;16.93;15.30;;;16.50;99.90;;;;;;5044911;28;20413;-37
2021/08/05 01:34:14;;;;;;;15.20;13.80;;;16.60;99.90;;;;;;5035571;28;20417;-37
2021/08/05 01:36:43;;;;;;;15.50;14.10;;;16.60;99.90;;;;;;5029633;28;20488;-36
2021/08/05 01:39:10;;;;;;;16.20;14.70;;;16.60;99.90;;;;;;5037863;28;20556;-37
2021/08/05 01:41:37;;;;;;;18.10;16.17;;;16.60;99.90;;;;;;5026951;28;20416;-37
2021/08/05 01:44:07;;;;;;;17.23;15.63;;;16.60;99.90;;;;;;5026305;28;20480;-37
2021/08/05 01:46:33;;;;;;;16.77;15.07;;;16.60;99.90;;;;;;5029988;28;20983;-37
2021/08/05 01:48:59;;;;;;;15.03;13.63;;;16.60;99.90;;;;;;5030400;28;20429;-37
2021/08/05 01:51:26;;;;;;;15.43;13.83;;;16.60;99.90;;;;;;5026867;28;20800;-37
2021/08/05 01:53:52;;;;;;;17.67;15.77;;;16.50;99.90;;;;;;5035079;28;20424;-37
2021/08/05 01:56:23;;;;;;;18.23;16.53;;;16.50;99.90;;;;;;5027245;28;20815;-37
2021/08/05 01:58:49;;;;;;;17.70;16.03;;;16.50;99.90;;;;;;5027027;28;20437;-39
2021/08/05 02:01:19;;;;;;;16.87;15.27;;;16.60;99.90;;;;;;5037798;28;20421;-37
2021/08/05 02:04:12;;;;;;;16.93;15.30;;;16.70;99.90;;;;;;5045642;28;20483;-37
2021/08/05 02:06:51;;;;;;;17.87;16.13;;;16.70;99.90;;;;;;5026130;28;20431;-37
2021/08/05 02:09:26;;;;;;;18.23;16.50;;;16.70;99.90;;;;;;5044342;28;20463;-37
2021/08/05 02:11:54;;;;;;;19.03;17.13;;;16.70;99.90;;;;;;5046769;28;20423;-37
2021/08/05 02:14:23;;;;;;;17.70;16.00;;;16.70;99.90;;;;;;5044175;28;20448;-37
2021/08/05 02:16:49;;;;;;;19.10;17.30;;;16.60;99.90;;;;;;5041223;28;20486;-37
2021/08/05 02:19:16;;;;;;;18.43;16.67;;;16.60;99.90;;;;;;5032805;28;20438;-37
2021/08/05 02:21:44;;;;;;;17.80;16.20;;;16.50;99.90;;;;;;5026844;28;20420;-37
2021/08/05 02:24:10;;;;;;;17.43;15.73;;;16.50;99.90;;;;;;5040289;28;20468;-37
2021/08/05 02:26:38;;;;;;;16.03;14.63;;;16.50;99.90;;;;;;5027210;28;21193;-37
2021/08/05 02:29:04;;;;;;;18.77;16.97;;;16.60;99.90;;;;;;5027221;28;20815;-37
2021/08/05 02:31:30;;;;;;;16.80;15.07;;;16.50;99.90;;;;;;5037966;28;20408;-37
2021/08/05 02:33:57;;;;;;;16.30;14.70;;;16.60;99.90;;;;;;5032427;28;20491;-37
2021/08/05 02:36:23;;;;;;;17.57;15.87;;;16.50;99.90;;;;;;5027430;28;20183;-37
2021/08/05 02:38:49;;;;;;;16.03;14.53;;;16.50;99.90;;;;;;5036022;28;20955;-37
2021/08/05 02:41:16;;;;;;;15.50;14.10;;;16.50;99.90;;;;;;5029677;28;20194;-38
2021/08/05 02:43:44;;;;;;;16.57;15.00;;;16.50;99.90;;;;;;5029840;28;20482;-37
2021/08/05 02:46:11;;;;;;;16.17;14.70;;;16.50;99.90;;;;;;5035407;28;20487;-38
2021/08/05 02:48:37;;;;;;;16.27;14.37;;;16.50;99.90;;;;;;5037075;28;20420;-37
2021/08/05 02:51:03;;;;;;;15.50;13.90;;;16.50;99.90;;;;;;5030326;28;20436;-38
2021/08/05 02:53:30;;;;;;;14.50;13.10;;;16.50;99.90;;;;;;5036266;28;20413;-37
2021/08/05 02:55:56;;;;;;;12.23;11.03;;;16.50;99.90;;;;;;5030629;28;21057;-37
2021/08/05 02:58:23;;;;;;;14.70;13.27;;;16.40;99.90;;;;;;5030381;28;20425;-38
2021/08/05 03:00:49;;;;;;;13.97;12.67;;;16.40;99.90;;;;;;5038731;28;20444;-37
2021/08/05 03:03:23;;;;;;;14.10;12.77;;;16.40;99.90;;;;;;5043945;28;20980;-37
2021/08/05 03:05:51;;;;;;;13.13;11.73;;;16.50;99.90;;;;;;5034071;28;20201;-37
2021/08/05 03:08:17;;;;;;;13.40;12.20;;;16.40;99.90;;;;;;5030674;28;20449;-37
2021/08/05 03:10:43;;;;;;;13.90;12.60;;;16.50;99.90;;;;;;5029943;28;20424;-38
2021/08/05 03:13:09;;;;;;;13.57;12.27;;;16.50;99.90;;;;;;5029825;28;20271;-37
2021/08/05 03:15:34;;;;;;;13.53;12.23;;;16.40;99.90;;;;;;5035850;28;20651;-38
2021/08/05 03:18:00;;;;;;;13.53;12.20;;;16.50;99.90;;;;;;5047044;28;20640;-36
2021/08/05 03:20:25;;;;;;;11.60;10.50;;;16.50;99.90;;;;;;5029538;28;20256;-37
2021/08/05 03:22:51;;;;;;;12.73;11.53;;;16.50;99.90;;;;;;5034974;28;20242;-37
2021/08/05 03:25:17;;;;;;;12.37;11.27;;;16.50;99.90;;;;;;5033891;28;20856;-37
2021/08/05 03:27:42;;;;;;;11.70;10.60;;;16.50;99.90;;;;;;5029993;28;20306;-37
2021/08/05 03:30:09;;;;;;;12.50;11.17;;;16.40;99.90;;;;;;5032003;28;20189;-37
2021/08/05 03:32:35;;;;;;;12.50;11.40;;;16.30;99.90;;;;;;5043986;28;20216;-38
2021/08/05 03:35:01;;;;;;;13.80;12.60;;;16.30;99.90;;;;;;5033234;28;20425;-37
2021/08/05 03:37:27;;;;;;;13.73;12.43;;;16.40;99.90;;;;;;5030546;28;20456;-37
2021/08/05 03:39:53;;;;;;;12.73;11.60;;;16.30;99.90;;;;;;5033816;28;20190;-37
2021/08/05 03:42:18;;;;;;;12.83;11.63;;;16.30;99.90;;;;;;5029247;28;20704;-37
2021/08/05 03:44:44;;;;;;;13.50;12.20;;;16.30;99.90;;;;;;5028387;28;20594;-37
2021/08/05 03:47:10;;;;;;;13.13;11.83;;;16.40;99.90;;;;;;5039415;28;20179;-37
2021/08/05 03:49:35;;;;;;;12.60;11.40;;;16.40;99.90;;;;;;5044276;28;20239;-38
2021/08/05 03:52:01;;;;;;;13.43;12.13;;;16.30;99.90;;;;;;5028328;28;20449;-37
2021/08/05 03:54:27;;;;;;;12.93;11.73;;;16.30;99.90;;;;;;5030453;28;20554;-37
2021/08/05 03:56:53;;;;;;;12.47;11.37;;;16.30;99.90;;;;;;5029185;28;20240;-37
2021/08/05 03:59:18;;;;;;;14.20;12.90;;;16.30;99.90;;;;;;5030954;28;20221;-37
2021/08/05 04:01:44;;;;;;;15.00;13.50;;;16.30;99.90;;;;;;5035592;28;20186;-37
2021/08/05 04:04:09;;;;;;;15.53;14.13;;;16.40;99.90;;;;;;5033268;28;20225;-38
2021/08/05 04:06:35;;;;;;;15.17;13.67;;;16.40;99.90;;;;;;5028158;28;20229;-37
2021/08/05 04:09:01;;;;;;;15.53;14.13;;;16.40;99.90;;;;;;5040139;28;20201;-37
2021/08/05 04:11:26;;;;;;;15.53;13.07;;;16.40;99.90;;;;;;5028979;28;20190;-37
2021/08/05 04:13:52;;;;;;;12.80;11.67;;;16.30;99.90;;;;;;5028890;28;20194;-38
2021/08/05 04:16:18;;;;;;;13.93;12.70;;;16.40;99.90;;;;;;5030865;28;20205;-39
2021/08/05 04:18:43;;;;;;;13.60;12.40;;;16.30;99.90;;;;;;5039779;28;20187;-37
2021/08/05 04:21:09;;;;;;;15.47;13.87;;;16.30;99.90;;;;;;5028868;28;20198;-37
2021/08/05 04:23:35;;;;;;;15.60;14.10;;;16.30;99.90;;;;;;5035319;28;20225;-37
2021/08/05 04:26:01;;;;;;;16.17;14.60;;;16.30;99.90;;;;;;5028783;28;20282;-37
2021/08/05 04:28:27;;;;;;;15.70;14.10;;;16.30;99.90;;;;;;5028717;28;20182;-37
2021/08/05 04:30:53;;;;;;;15.60;14.03;;;16.30;99.90;;;;;;5036918;28;20471;-37
2021/08/05 04:33:20;;;;;;;16.30;14.63;;;16.10;99.90;;;;;;5039752;28;20190;-37
2021/08/05 04:35:45;;;;;;;15.37;13.80;;;16.10;99.90;;;;;;5039772;28;20558;-37
2021/08/05 04:38:12;;;;;;;14.70;13.30;;;16.10;99.90;;;;;;5031214;28;20440;-38
2021/08/05 04:40:38;;;;;;;14.93;13.57;;;16.10;99.90;;;;;;5028112;28;20294;-39
2021/08/05 04:43:04;;;;;;;15.30;13.80;;;16.00;99.90;;;;;;5028186;28;20469;-37
2021/08/05 04:45:30;;;;;;;13.90;12.57;;;16.00;99.90;;;;;;5032190;28;20448;-37
2021/08/05 04:48:04;;;;;;;15.80;14.30;;;16.10;99.90;;;;;;5041148;28;20428;-37
2021/08/05 04:50:38;;;;;;;16.37;14.77;;;16.10;99.90;;;;;;5027616;28;20189;-39
2021/08/05 04:53:06;;;;;;;17.03;15.33;;;16.10;99.90;;;;;;5030355;28;20436;-37
2021/08/05 04:55:32;;;;;;;16.60;14.13;;;16.10;99.90;;;;;;5037711;28;20444;-37
2021/08/05 04:58:00;;;;;;;16.80;15.20;;;16.10;99.90;;;;;;5028042;28;20432;-38
2021/08/05 05:00:28;;;;;;;16.93;15.33;;;16.10;99.90;;;;;;5030255;28;21202;-37
2021/08/05 05:02:54;;;;;;;17.70;16.20;;;16.10;99.90;;;;;;5033742;28;20530;-38
2021/08/05 05:05:21;;;;;;;17.33;15.70;;;16.20;99.90;;;;;;5032476;28;20921;-38
2021/08/05 05:07:46;;;;;;;18.10;16.20;;;16.20;99.90;;;;;;5026586;28;20898;-38
2021/08/05 05:10:13;;;;;;;17.50;15.90;;;16.20;99.90;;;;;;5034220;28;20444;-37
2021/08/05 05:12:39;;;;;;;16.30;14.70;;;16.20;99.90;;;;;;5027901;28;20204;-37
2021/08/05 05:15:10;;;;;;;15.67;14.27;;;16.20;99.90;;;;;;5027545;28;20451;-38
2021/08/05 05:17:36;;;;;;;15.83;14.33;;;16.20;99.90;;;;;;5041268;28;21091;-38
2021/08/05 05:20:03;;;;;;;16.43;14.93;;;16.30;99.90;;;;;;5045922;28;20817;-37
2021/08/05 05:22:29;;;;;;;18.67;16.80;;;16.40;99.90;;;;;;5026965;28;20471;-37
2021/08/05 05:24:55;;;;;;;21.73;19.43;;;16.50;99.90;;;;;;5030506;28;20422;-37
2021/08/05 05:27:20;;;;;;;19.60;17.60;;;16.50;99.90;;;;;;5027668;28;20182;-37
2021/08/05 05:29:46;;;;;;;21.30;19.20;;;16.60;99.90;;;;;;5034362;28;20221;-37
2021/08/05 05:32:12;;;;;;;21.93;19.70;;;16.60;99.90;;;;;;5036250;28;20187;-37
2021/08/05 05:34:37;;;;;;;20.63;18.53;;;16.60;99.90;;;;;;5032274;28;20188;-38
2021/08/05 05:37:03;;;;;;;21.77;19.23;;;16.70;99.90;;;;;;5027484;28;20935;-37
2021/08/05 05:39:29;;;;;;;25.53;22.77;;;16.70;99.90;;;;;;5037180;28;20228;-38
2021/08/05 05:41:55;;;;;;;26.40;23.70;;;16.80;99.90;;;;;;5028368;28;20491;-37
2021/08/05 05:44:20;;;;;;;23.90;21.47;;;16.80;99.90;;;;;;5027710;28;20312;-37
2021/08/05 05:46:46;;;;;;;24.17;21.63;;;16.80;99.90;;;;;;5028139;28;20643;-37
2021/08/05 05:49:12;;;;;;;23.10;20.53;;;16.90;99.90;;;;;;5042581;28;20273;-37
2021/08/05 05:51:38;;;;;;;24.07;21.70;;;16.90;99.90;;;;;;5026820;28;20249;-37
2021/08/05 05:54:05;;;;;;;26.70;23.40;;;16.80;99.90;;;;;;5033253;28;20196;-37
2021/08/05 05:56:31;;;;;;;22.70;19.90;;;16.90;99.90;;;;;;5028412;28;21201;-37
2021/08/05 05:58:56;;;;;;;21.17;19.07;;;16.90;99.90;;;;;;5027532;28;21090;-38
2021/08/05 06:01:22;;;;;;;20.30;18.20;;;16.90;99.90;;;;;;5030889;28;20518;-37
2021/08/05 06:03:47;;;;;;;21.20;19.10;;;16.90;99.90;;;;;;5040846;28;20237;-37
2021/08/05 06:06:13;;;;;;;20.40;18.30;;;16.90;99.90;;;;;;5039198;28;20237;-37
2021/08/05 06:08:39;;;;;;;22.47;20.07;;;16.90;99.90;;;;;;5031266;28;20302;-37
2021/08/05 06:11:04;;;;;;;20.90;18.90;;;16.90;99.90;;;;;;5032515;28;20236;-37
2021/08/05 06:13:31;;;;;;;20.90;17.50;;;16.90;99.90;;;;;;5047060;28;20243;-37
2021/08/05 06:15:56;;;;;;;22.43;19.30;;;16.90;99.90;;;;;;5044628;28;20213;-37
2021/08/05 06:18:22;;;;;;;22.70;20.30;;;17.00;99.90;;;;;;5034668;28;20424;-37
2021/08/05 06:20:48;;;;;;;23.87;21.37;;;17.00;99.90;;;;;;5032907;28;20190;-37
2021/08/05 06:23:13;;;;;;;25.00;21.00;;;17.00;99.90;;;;;;5030550;28;20871;-37
2021/08/05 06:25:39;;;;;;;23.13;20.77;;;17.00;99.90;;;;;;5042976;28;20209;-37
2021/08/05 06:28:05;;;;;;;23.37;21.07;;;17.00;99.90;;;;;;5031014;28;20186;-38
2021/08/05 06:30:32;;;;;;;23.60;21.30;;;17.00;99.90;;;;;;5037588;28;20190;-37
2021/08/05 06:32:58;;;;;;;24.80;22.17;;;17.00;99.90;;;;;;5034021;28;20490;-37
2021/08/05 06:35:23;;;;;;;27.30;24.60;;;17.00;99.90;;;;;;5034430;28;20432;-38
2021/08/05 06:37:50;;;;;;;26.80;24.07;;;17.00;99.90;;;;;;5029924;28;20432;-37
2021/08/05 06:40:16;;;;;;;30.07;26.83;;;17.10;99.90;;;;;;5038095;28;20273;-37
2021/08/05 06:42:42;;;;;;;32.33;28.83;;;17.10;99.90;;;;;;5031064;28;20555;-37
2021/08/05 06:45:09;;;;;;;32.53;29.23;;;17.20;99.90;;;;;;5036009;28;20317;-37
2021/08/05 06:47:39;;;;;;;32.17;28.87;;;17.20;99.90;;;;;;5041536;28;20186;-37
2021/08/05 06:50:05;;;;;;;30.40;27.30;;;17.20;99.90;;;;;;5043338;28;20953;-38
2021/08/05 06:52:31;;;;;;;35.13;31.40;;;17.20;99.90;;;;;;5039286;28;20440;-38
2021/08/05 06:54:57;;;;;;;35.07;31.37;;;17.30;99.90;;;;;;5050122;28;20425;-40
2021/08/05 06:57:22;;;;;;;34.57;30.80;;;17.30;99.90;;;;;;5035145;28;20269;-37
2021/08/05 06:59:48;;;;;;;30.87;27.67;;;17.40;99.90;;;;;;5033359;28;20225;-38
2021/08/05 07:02:14;;;;;;;33.07;29.60;;;17.40;99.90;;;;;;5035193;28;20241;-38
2021/08/05 07:04:39;;;;;;;33.20;30.00;;;17.40;99.90;;;;;;5047321;28;20189;-37
2021/08/05 07:07:05;;;;;;;35.67;31.87;;;17.40;99.90;;;;;;5032065;28;20609;-38
2021/08/05 07:09:31;;;;;;;32.30;29.07;;;17.40;99.90;;;;;;5040714;28;20201;-37
2021/08/05 07:11:56;;;;;;;32.47;29.03;;;17.50;99.90;;;;;;5029956;28;20600;-37
2021/08/05 07:14:22;;;;;;;34.10;30.50;;;17.50;99.90;;;;;;5028861;28;20270;-37
2021/08/05 07:16:48;;;;;;;37.70;33.70;;;17.50;99.90;;;;;;5033440;28;20185;-37
2021/08/05 07:19:13;;;;;;;36.10;32.30;;;17.60;99.90;;;;;;5030866;28;20186;-38
2021/08/05 07:21:39;;;;;;;32.67;29.47;;;17.60;99.90;;;;;;5033718;28;20197;-39
2021/08/05 07:24:05;;;;;;;33.43;30.10;;;17.60;99.90;;;;;;5029326;28;20218;-37
2021/08/05 07:26:31;;;;;;;35.90;32.10;;;17.70;99.90;;;;;;5036681;28;20186;-38
2021/08/05 07:28:56;;;;;;;37.13;33.43;;;17.70;99.90;;;;;;5028675;28;20645;-38
2021/08/05 07:31:22;;;;;;;38.17;34.00;;;17.70;99.90;;;;;;5040778;28;20216;-39
2021/08/05 07:33:49;;;;;;;42.10;34.93;;;17.80;99.90;;;;;;5039092;28;21025;-38
2021/08/05 07:36:17;;;;;;;37.37;33.40;;;17.80;99.90;;;;;;5042900;28;20247;-38
2021/08/05 07:38:42;;;;;;;34.30;30.70;;;17.80;99.90;;;;;;5040258;28;20986;-38
2021/08/05 07:41:08;;;;;;;36.57;32.13;;;18.00;99.90;;;;;;5032153;28;20524;-37
2021/08/05 07:43:34;;;;;;;33.53;30.03;;;18.10;99.90;;;;;;5029106;28;20214;-37
2021/08/05 07:46:00;;;;;;;35.60;31.77;;;18.30;99.90;;;;;;5026898;28;20436;-38
2021/08/05 07:48:26;;;;;;;35.10;31.57;;;18.40;99.90;;;;;;5040937;28;20202;-37
2021/08/05 07:50:52;;;;;;;38.17;34.20;;;18.60;99.90;;;;;;5045048;28;20277;-37
2021/08/05 07:53:17;;;;;;;36.17;32.37;;;18.80;99.90;;;;;;5031416;28;21008;-41
2021/08/05 07:55:43;;;;;;;33.60;30.20;;;18.90;99.90;;;;;;5030739;28;20487;-38
2021/08/05 07:58:09;;;;;;;38.80;34.73;;;19.00;99.90;;;;;;5029434;28;20194;-38
2021/08/05 08:00:35;;;;;;;35.90;32.20;;;19.10;99.90;;;;;;5028760;28;20194;-38
2021/08/05 08:03:05;;;;;;;34.90;31.10;;;19.10;99.90;;;;;;5035846;28;20531;-38
2021/08/05 08:05:31;;;;;;;38.03;34.23;;;19.20;99.90;;;;;;5036869;28;20950;-37
2021/08/05 08:07:59;;;;;;;35.77;32.10;;;19.30;99.90;;;;;;5028156;28;20416;-37
2021/08/05 08:10:26;;;;;;;34.10;30.47;;;19.30;99.90;;;;;;5038813;28;21177;-41
2021/08/05 08:12:53;;;;;;;32.60;29.30;;;19.30;99.90;;;;;;5029054;28;20432;-37
2021/08/05 08:15:23;;;;;;;33.20;29.67;;;19.40;99.90;;;;;;5028904;28;20917;-37
2021/08/05 08:17:48;;;;;;;31.20;28.20;;;19.40;99.90;;;;;;5035175;28;20447;-40
2021/08/05 08:20:14;;;;;;;26.63;23.93;;;19.40;99.90;;;;;;5043422;28;20480;-38
2021/08/05 08:22:40;;;;;;;28.20;25.37;;;19.40;99.90;;;;;;5028919;28;20210;-38
2021/08/05 08:25:06;;;;;;;26.37;23.33;;;19.60;99.90;;;;;;5033374;28;20198;-39
2021/08/05 08:27:31;;;;;;;25.57;23.07;;;19.60;99.90;;;;;;5028948;28;20305;-38
2021/08/05 08:29:57;;;;;;;24.43;22.13;;;19.70;99.90;;;;;;5037304;28;20489;-38
2021/08/05 08:32:23;;;;;;;25.97;23.47;;;19.70;99.90;;;;;;5036221;28;20205;-38
2021/08/05 08:34:48;;;;;;;22.47;20.17;;;19.70;99.90;;;;;;5025465;28;20186;-37
2021/08/05 08:37:14;;;;;;;19.10;17.17;;;19.80;99.90;;;;;;5030540;28;20191;-40
2021/08/05 08:39:40;;;;;;;19.50;17.70;;;19.80;99.90;;;;;;5028643;28;20195;-37
2021/08/05 08:42:07;;;;;;;24.47;22.00;;;19.80;99.90;;;;;;5028770;28;20208;-38
2021/08/05 08:44:33;;;;;;;19.60;17.80;;;19.90;99.90;;;;;;5028238;28;20238;-39
2021/08/05 08:47:00;;;;;;;25.23;22.73;;;20.00;99.90;;;;;;5033379;28;20464;-39
2021/08/05 08:49:26;;;;;;;20.17;18.20;;;20.00;99.90;;;;;;5034174;28;20476;-37
2021/08/05 08:51:55;;;;;;;23.80;19.23;;;20.00;99.90;;;;;;5031191;28;20421;-38
2021/08/05 08:54:21;;;;;;;17.80;16.20;;;20.10;99.90;;;;;;5028132;28;20612;-38
2021/08/05 08:56:48;;;;;;;19.20;17.37;;;20.10;99.90;;;;;;5039965;28;20500;-38
2021/08/05 08:59:17;;;;;;;21.87;19.93;;;20.20;99.90;;;;;;5027083;28;20435;-38
2021/08/05 09:01:43;;;;;;;18.53;16.83;;;20.30;99.90;;;;;;5033884;28;20952;-39
2021/08/05 09:04:09;;;;;;;18.93;17.13;;;20.40;99.90;;;;;;5042333;28;20495;-39
2021/08/05 09:06:35;;;;;;;23.10;20.80;;;20.50;99.90;;;;;;5038637;28;20440;-38
2021/08/05 09:09:05;;;;;;;20.43;18.47;;;20.60;99.90;;;;;;5028121;28;20788;-38
2021/08/05 09:11:31;;;;;;;22.00;20.00;;;20.60;99.90;;;;;;5032957;28;20980;-38
2021/08/05 09:13:57;;;;;;;19.60;17.80;;;20.70;99.90;;;;;;5027719;28;20428;-38
2021/08/05 09:16:32;;;;;;;16.00;14.60;;;20.70;99.90;;;;;;5026857;28;20194;-38
2021/08/05 09:19:13;;;;;;;13.93;12.70;;;20.80;99.90;;;;;;5035941;28;20198;-38
2021/08/05 09:21:51;;;;;;;15.80;14.30;;;20.80;99.90;;;;;;5037222;28;20436;-38
2021/08/05 09:24:17;;;;;;;15.70;14.20;;;20.90;99.90;;;;;;5026449;28;20467;-37
2021/08/05 09:26:47;;;;;;;21.50;19.50;;;20.90;99.90;;;;;;5028973;28;20429;-37
2021/08/05 09:29:19;;;;;;;18.13;16.60;;;20.90;99.90;;;;;;5030621;28;20666;-40
2021/08/05 09:32:03;;;;;;;20.50;18.70;;;20.90;99.90;;;;;;5033563;28;20425;-37
2021/08/05 09:34:40;;;;;;;19.97;18.17;;;21.00;99.90;;;;;;5043100;28;20535;-39
2021/08/05 09:37:08;;;;;;;20.80;18.93;;;20.90;99.90;;;;;;5033605;28;20783;-38
2021/08/05 09:39:46;;;;;;;20.17;18.37;;;20.90;99.90;;;;;;5027778;28;20429;-40
2021/08/05 09:42:14;;;;;;;18.80;17.20;;;20.80;99.90;;;;;;5036076;28;20528;-38
2021/08/05 09:44:41;;;;;;;15.70;14.20;;;20.90;99.90;;;;;;5027110;28;20464;-38
2021/08/05 09:47:07;;;;;;;13.93;12.73;;;20.90;99.90;;;;;;5027706;28;20523;-38
2021/08/05 09:49:34;;;;;;;14.73;13.43;;;21.00;99.90;;;;;;5035576;28;20833;-38
2021/08/05 09:52:01;;;;;;;16.17;14.73;;;20.90;99.90;;;;;;5034183;28;20182;-38
2021/08/05 09:54:43;;;;;;;19.30;17.50;;;21.00;99.90;;;;;;5027588;28;20456;-38
2021/08/05 09:57:13;;;;;;;17.50;15.97;;;21.00;99.90;;;;;;5033391;28;20429;-38
2021/08/05 09:59:56;;;;;;;21.97;19.97;;;21.00;99.90;;;;;;5027565;28;20432;-38
2021/08/05 10:02:24;;;;;;;20.10;18.20;;;21.00;99.90;;;;;;5028056;28;20439;-38
2021/08/05 10:04:50;;;;;;;22.60;20.60;;;20.90;99.90;;;;;;5042668;28;20430;-39
2021/08/05 10:07:16;;;;;;;20.07;18.27;;;21.00;99.90;;;;;;5041637;28;20435;-39
2021/08/05 10:09:44;;;;;;;22.67;20.37;;;21.00;99.90;;;;;;5027490;28;20532;-38
2021/08/05 10:12:15;;;;;;;18.50;16.83;;;21.00;99.90;;;;;;5028627;28;20426;-38
2021/08/05 10:14:42;;;;;;;18.60;16.90;;;21.00;99.90;;;;;;5027262;28;20425;-38
2021/08/05 10:17:10;;;;;;;17.27;15.63;;;21.10;99.90;;;;;;5027072;28;20429;-38
2021/08/05 10:19:41;;;;;;;16.40;14.83;;;21.10;99.90;;;;;;5031826;28;20452;-39
2021/08/05 10:22:09;;;;;;;17.50;15.80;;;21.10;99.90;;;;;;5033458;28;20432;-40
2021/08/05 10:24:37;;;;;;;18.90;17.10;;;21.20;99.90;;;;;;5026818;28;20492;-39
2021/08/05 10:27:09;;;;;;;19.17;17.50;;;21.20;99.90;;;;;;5037181;28;20432;-39
2021/08/05 10:29:38;;;;;;;17.20;15.60;;;21.20;99.90;;;;;;5032506;28;20421;-38
2021/08/05 10:32:05;;;;;;;18.77;17.07;;;21.20;99.90;;;;;;5027517;28;20819;-38
2021/08/05 10:34:36;;;;;;;17.13;15.53;;;21.10;99.90;;;;;;5028467;28;20460;-41
2021/08/05 10:37:03;;;;;;;18.10;16.33;;;21.10;99.90;;;;;;5037296;28;20429;-38
2021/08/05 10:39:30;;;;;;;18.40;16.80;;;21.10;99.90;;;;;;5025919;28;20522;-38
2021/08/05 10:41:59;;;;;;;16.90;15.40;;;21.10;99.90;;;;;;5031389;28;20460;-38
2021/08/05 10:44:26;;;;;;;16.40;14.73;;;21.10;99.90;;;;;;5018177;28;20503;-38
2021/08/05 10:46:55;;;;;;;18.47;16.87;;;21.10;99.90;;;;;;5026992;28;20429;-38
2021/08/05 10:49:21;;;;;;;17.43;16.03;;;21.10;99.90;;;;;;5030019;28;20552;-40
2021/08/05 10:51:48;;;;;;;18.90;17.30;;;21.10;99.90;;;;;;5038088;28;20436;-41
2021/08/05 10:54:45;;;;;;;19.10;17.30;;;21.00;99.90;;;;;;5025740;28;20440;-38
2021/08/05 10:57:29;;;;;;;20.27;18.47;;;21.00;99.90;;;;;;5028655;28;20421;-38
2021/08/05 10:59:58;;;;;;;15.60;14.30;;;21.00;99.90;;;;;;5026854;28;20548;-40
2021/08/05 11:02:54;;;;;;;16.83;15.17;;;21.00;99.90;;;;;;5028127;28;20443;-39
2021/08/05 11:05:25;;;;;;;20.27;18.37;;;20.90;99.90;;;;;;5039661;28;20421;-38
2021/08/05 11:08:15;;;;;;;17.17;15.57;;;20.90;99.90;;;;;;5033706;28;20808;-38
2021/08/05 11:10:41;;;;;;;17.03;15.50;;;20.90;99.90;;;;;;5029615;28;20827;-40
2021/08/05 11:13:07;;;;;;;18.70;16.90;;;20.80;99.90;;;;;;5039472;28;20436;-38
2021/08/05 11:15:35;;;;;;;19.63;17.93;;;20.80;99.90;;;;;;5030120;28;20406;-37
2021/08/05 11:18:19;;;;;;;18.20;16.70;;;20.80;99.90;;;;;;5029770;28;20197;-38
2021/08/05 11:20:51;;;;;;;17.00;15.50;;;20.80;99.90;;;;;;5034949;28;20424;-38
2021/08/05 11:23:25;;;;;;;15.80;14.43;;;20.70;99.90;;;;;;5034272;28;20580;-40
2021/08/05 11:25:51;;;;;;;15.13;13.93;;;20.70;99.90;;;;;;5036709;28;20408;-42
2021/08/05 11:28:25;;;;;;;19.77;17.97;;;20.80;99.90;;;;;;5036686;28;20419;-38
2021/08/05 11:30:52;;;;;;;17.60;16.00;;;21.00;99.90;;;;;;5037886;28;20548;-38
2021/08/05 11:33:43;;;;;;;19.87;18.10;;;21.20;99.90;;;;;;5028724;28;20452;-39
2021/08/05 11:36:22;;;;;;;19.67;17.93;;;21.50;99.90;;;;;;5043422;28;20416;-38
2021/08/05 11:39:19;;;;;;;17.80;16.00;;;21.60;99.90;;;;;;5041109;28;20424;-38
2021/08/05 11:41:55;;;;;;;19.67;18.07;;;21.70;99.90;;;;;;5031793;28;20421;-38
2021/08/05 11:44:31;;;;;;;16.60;15.20;;;21.70;99.90;;;;;;5028314;28;20457;-39
2021/08/05 11:47:07;;;;;;;17.80;16.23;;;21.70;99.90;;;;;;5036858;28;21027;-37
2021/08/05 11:49:39;;;;;;;19.10;17.30;;;21.80;99.90;;;;;;5037623;28;20455;-39
2021/08/05 11:52:31;;;;;;;18.30;16.70;;;21.70;99.90;;;;;;5045974;28;20583;-41
2021/08/05 11:54:59;;;;;;;14.97;13.67;;;21.60;99.90;;;;;;5029386;28;20449;-37
2021/08/05 11:57:26;;;;;;;17.00;15.60;;;21.60;99.90;;;;;;5040547;28;20408;-39
2021/08/05 11:59:54;;;;;;;17.77;15.87;;;21.70;99.90;;;;;;5029465;28;20417;-38
2021/08/05 12:02:22;;;;;;;15.10;13.70;;;21.90;99.90;;;;;;5028826;28;20425;-37
2021/08/05 12:04:49;;;;;;;15.70;14.40;;;21.90;99.90;;;;;;5035912;28;20436;-38
2021/08/05 12:07:38;;;;;;;17.87;16.37;;;22.10;99.90;;;;;;5039613;28;20421;-38
2021/08/05 12:10:22;;;;;;;14.93;13.63;;;22.10;99.90;;;;;;5029349;28;20429;-37
2021/08/05 12:12:55;;;;;;;14.90;13.70;;;22.20;99.90;;;;;;5035050;28;20774;-37
2021/08/05 12:15:42;;;;;;;15.23;14.03;;;22.20;99.90;;;;;;5029359;28;20417;-38
2021/08/05 12:18:14;;;;;;;14.80;13.60;;;22.10;99.90;;;;;;5028827;28;20433;-37
2021/08/05 12:20:54;;;;;;;13.47;12.23;;;22.00;99.90;;;;;;5038401;28;20429;-38
2021/08/05 12:28:31;;;;;;;9.70;8.83;;;21.60;99.90;;;;;;5032014;28;20428;-38
2021/08/05 12:30:59;;;;;;;9.20;8.50;;;21.50;99.90;;;;;;5035404;28;20432;-37
2021/08/05 12:33:31;;;;;;;9.97;9.17;;;21.50;99.90;;;;;;5027676;28;20428;-37
2021/08/05 12:36:05;;;;;;;9.50;8.80;;;21.40;99.90;;;;;;5047027;28;20428;-37
2021/08/05 12:38:31;;;;;;;10.03;9.10;;;21.40;99.90;;;;;;5036364;28;20448;-39
2021/08/05 12:40:58;;;;;;;9.60;8.80;;;21.30;99.90;;;;;;5028531;28;20429;-38